Lunderskov, Denmark
Current Conditions -  °F | °C
As of 5:20 PM on Wednesday 28 Jan 2015 (Local Time) from EKSP Reporting Station
Light Rain Light Rain  
Wind Chill: 28°   Ceiling: 1000
Heat Index: 39°   Visibility: 6mi
Dew Point: 36°   Wind: 26mph
Humidity: 87%   Direction: 200°SSW
Pressure: 29.03"   Gusts: 43mph
Location:  55.48°N, 9.3°E
Report Text: EKSP 281620Z 20023G37KT 9999 -RA BKN010 BKN016 04/02 Q0983
Loading
Personal Weather Stations






























Interactive Weather Map New forecast layout! Learn more

10-Day Weather Forecast

Advertisements
Track Severe Weather on mobile